Time;durP1;ratioP1;P1;durP2;ratioP2;P2;SDS_P1;SDS_P2;PMS_P1;PMS_P2;Temp;Humidity;BMP_temperature;BMP_pressure;BME280_temperature;BME280_humidity;BME280_pressure;Samples;Min_cycle;Max_cycle;Signal;HPM_P1;HPM_P2
2024/03/13 00:01:44;;;;;;;;;;;18.10;54.00;;;;;;5037262;28;1902;-71
2024/03/13 00:04:10;;;;;;;;;;;18.10;54.00;;;;;;5036148;28;1257;-73
2024/03/13 00:06:36;;;;;;;;;;;18.10;54.10;;;;;;5036733;28;1062;-72
2024/03/13 00:09:03;;;;;;;;;;;18.10;54.20;;;;;;5038844;28;1427;-72
2024/03/13 00:11:29;;;;;;;;;;;18.10;54.30;;;;;;5042369;28;1451;-72
2024/03/13 00:13:55;;;;;;;;;;;18.10;54.30;;;;;;5040692;28;1560;-72
2024/03/13 00:16:21;;;;;;;;;;;18.10;54.40;;;;;;5040517;28;1205;-73
2024/03/13 00:18:46;;;;;;;;;;;18.10;54.50;;;;;;5042544;28;1256;-73
2024/03/13 00:21:12;;;;;;;;;;;18.10;54.50;;;;;;5041723;28;1345;-72
2024/03/13 00:23:38;;;;;;;;;;;18.10;54.60;;;;;;5041686;28;1894;-73
2024/03/13 00:26:03;;;;;;;;;;;18.10;54.60;;;;;;5040560;28;1440;-72
2024/03/13 00:28:29;;;;;;;;;;;18.10;54.70;;;;;;5050178;28;1333;-73
2024/03/13 00:30:54;;;;;;;;;;;18.10;54.80;;;;;;5043473;28;1276;-73
2024/03/13 00:33:20;;;;;;;;;;;18.10;54.80;;;;;;5043182;28;1359;-72
2024/03/13 00:35:45;;;;;;;;;;;18.10;54.90;;;;;;5043965;28;1474;-72
2024/03/13 00:38:11;;;;;;;;;;;18.10;55.00;;;;;;5042766;28;1317;-72
2024/03/13 00:40:37;;;;;;;;;;;18.10;55.00;;;;;;5044330;28;1260;-72
2024/03/13 00:43:02;;;;;;;;;;;18.10;55.10;;;;;;5042697;28;1955;-72
2024/03/13 00:45:28;;;;;;;;;;;18.10;55.10;;;;;;5042963;28;802;-72
2024/03/13 00:47:54;;;;;;;;;;;18.10;55.20;;;;;;5041398;28;1308;-72
2024/03/13 00:50:19;;;;;;;;;;;18.10;55.20;;;;;;5044585;28;1564;-72
2024/03/13 00:52:46;;;;;;;;;;;18.10;55.30;;;;;;5051109;28;1483;-72
2024/03/13 00:55:12;;;;;;;;;;;18.10;55.40;;;;;;5040856;28;1253;-73
2024/03/13 00:57:41;;;;;;;;;;;18.10;55.40;;;;;;5042729;28;1476;-73
2024/03/13 01:00:09;;;;;;;;;;;18.10;55.50;;;;;;5045324;28;1366;-72
2024/03/13 01:02:35;;;;;;;;;;;18.10;55.50;;;;;;5038933;28;1894;-72
2024/03/13 01:05:00;;;;;;;;;;;18.10;55.50;;;;;;5042393;28;1651;-72
2024/03/13 01:07:26;;;;;;;;;;;18.10;55.60;;;;;;5038987;28;1370;-72
2024/03/13 01:09:51;;;;;;;;;;;18.10;55.60;;;;;;5042646;28;1322;-72
2024/03/13 01:12:19;;;;;;;;;;;18.10;55.70;;;;;;5043309;28;1533;-72
2024/03/13 01:14:45;;;;;;;;;;;18.10;55.70;;;;;;5041715;28;1444;-72
2024/03/13 01:17:11;;;;;;;;;;;18.10;55.70;;;;;;5040355;28;2322;-72
2024/03/13 01:19:37;;;;;;;;;;;18.10;55.80;;;;;;5042707;28;809;-72
2024/03/13 01:22:07;;;;;;;;;;;18.10;55.80;;;;;;5042416;28;1958;-71
2024/03/13 01:24:33;;;;;;;;;;;18.10;55.90;;;;;;5038805;28;1623;-72
2024/03/13 01:26:59;;;;;;;;;;;18.10;55.90;;;;;;5040542;28;1249;-72
2024/03/13 01:29:25;;;;;;;;;;;18.10;56.00;;;;;;5038071;28;1559;-72
2024/03/13 01:31:50;;;;;;;;;;;18.10;56.00;;;;;;5042187;28;1464;-72
2024/03/13 01:34:16;;;;;;;;;;;18.10;56.00;;;;;;5053469;28;1371;-70
2024/03/13 01:39:26;;;;;;;;;;;18.10;56.20;;;;;;5038797;28;799;-73
2024/03/13 01:55:35;;;;;;;;;;;18.40;57.20;;;;;;5042506;28;1767;-73
2024/03/13 02:03:13;;;;;;;;;;;18.30;56.90;;;;;;5040500;28;1894;-73
2024/03/13 02:05:40;;;;;;;;;;;18.30;56.90;;;;;;5038192;28;1360;-73
2024/03/13 02:08:05;;;;;;;;;;;18.30;56.90;;;;;;5073311;28;1230;-73
2024/03/13 02:10:31;;;;;;;;;;;18.30;56.90;;;;;;5047767;28;1566;-73
2024/03/13 02:13:16;;;;;;;;;;;18.20;56.90;;;;;;5041070;28;1554;-73
2024/03/13 02:15:42;;;;;;;;;;;18.30;57.00;;;;;;5041605;28;1076;-73
2024/03/13 02:18:16;;;;;;;;;;;18.20;57.00;;;;;;5032324;28;1257;-72
2024/03/13 02:20:43;;;;;;;;;;;18.20;57.00;;;;;;5041320;28;1602;-72
2024/03/13 02:23:08;;;;;;;;;;;18.20;57.00;;;;;;5073530;28;2102;-72
2024/03/13 02:25:34;;;;;;;;;;;18.20;57.10;;;;;;5039416;28;880;-73
2024/03/13 02:27:59;;;;;;;;;;;18.20;57.10;;;;;;5042635;28;1556;-73
2024/03/13 02:30:25;;;;;;;;;;;18.20;57.10;;;;;;5040683;28;1557;-73
2024/03/13 02:32:50;;;;;;;;;;;18.20;57.10;;;;;;5040597;28;1471;-72
2024/03/13 02:35:16;;;;;;;;;;;18.10;57.10;;;;;;5038176;28;1248;-73
2024/03/13 02:37:41;;;;;;;;;;;18.20;57.20;;;;;;5042725;28;1538;-72
2024/03/13 02:40:09;;;;;;;;;;;18.10;57.20;;;;;;5038149;28;1476;-73
2024/03/13 02:42:34;;;;;;;;;;;18.10;57.20;;;;;;5039464;28;1999;-73
2024/03/13 02:45:00;;;;;;;;;;;18.10;57.20;;;;;;5039135;28;954;-72
2024/03/13 02:47:25;;;;;;;;;;;18.10;57.30;;;;;;5039301;28;918;-73
2024/03/13 02:49:51;;;;;;;;;;;18.10;57.30;;;;;;5042088;28;1105;-72
2024/03/13 02:52:18;;;;;;;;;;;18.10;57.30;;;;;;5039624;28;1063;-72
2024/03/13 02:54:43;;;;;;;;;;;18.10;57.30;;;;;;5039478;28;1248;-73
2024/03/13 02:57:09;;;;;;;;;;;18.10;57.30;;;;;;5039593;28;986;-73
2024/03/13 02:59:34;;;;;;;;;;;18.10;57.40;;;;;;5039482;28;1585;-72
2024/03/13 03:02:00;;;;;;;;;;;18.10;57.40;;;;;;5041903;28;1894;-73
2024/03/13 03:04:25;;;;;;;;;;;18.10;57.40;;;;;;5040610;28;1253;-73
2024/03/13 03:06:51;;;;;;;;;;;18.10;57.40;;;;;;5040961;28;1174;-72
2024/03/13 03:09:16;;;;;;;;;;;18.10;57.40;;;;;;5039957;28;1178;-72
2024/03/13 03:11:45;;;;;;;;;;;18.10;57.50;;;;;;5039537;28;1270;-72
2024/03/13 03:14:12;;;;;;;;;;;18.10;57.50;;;;;;5041770;28;1463;-73
2024/03/13 03:16:37;;;;;;;;;;;18.10;57.50;;;;;;5041206;28;1364;-73
2024/03/13 03:19:03;;;;;;;;;;;18.10;57.50;;;;;;5028504;28;1311;-73
2024/03/13 03:21:28;;;;;;;;;;;18.10;57.50;;;;;;5040871;28;1998;-73
2024/03/13 03:23:54;;;;;;;;;;;18.10;57.50;;;;;;5037016;28;1408;-73
2024/03/13 03:26:19;;;;;;;;;;;18.10;57.60;;;;;;5040889;28;1587;-73
2024/03/13 03:28:45;;;;;;;;;;;18.10;57.60;;;;;;5038294;28;1645;-73
2024/03/13 03:31:10;;;;;;;;;;;18.10;57.60;;;;;;5038772;28;1468;-73
2024/03/13 03:33:37;;;;;;;;;;;18.10;57.60;;;;;;5039954;28;1611;-73
2024/03/13 03:36:05;;;;;;;;;;;18.10;57.60;;;;;;5036647;28;1296;-72
2024/03/13 03:38:33;;;;;;;;;;;18.00;57.60;;;;;;5038080;28;1534;-73
2024/03/13 03:40:59;;;;;;;;;;;18.10;57.70;;;;;;5044815;28;1468;-73
2024/03/13 03:43:26;;;;;;;;;;;18.10;57.70;;;;;;5040147;28;1991;-73
2024/03/13 03:45:53;;;;;;;;;;;18.10;57.70;;;;;;5042252;28;1342;-72
2024/03/13 03:48:18;;;;;;;;;;;18.10;57.70;;;;;;5042443;28;1332;-73
2024/03/13 03:50:44;;;;;;;;;;;18.10;57.70;;;;;;5041980;28;1255;-71
2024/03/13 03:53:09;;;;;;;;;;;18.10;57.80;;;;;;5045796;28;1264;-74
2024/03/13 03:55:36;;;;;;;;;;;18.00;57.70;;;;;;5045524;28;1460;-72
2024/03/13 03:58:01;;;;;;;;;;;18.00;57.70;;;;;;5047989;28;1323;-70
2024/03/13 04:00:27;;;;;;;;;;;18.10;57.80;;;;;;5042990;28;1061;-72
2024/03/13 04:02:53;;;;;;;;;;;18.00;57.80;;;;;;5047779;28;1964;-73
2024/03/13 04:05:19;;;;;;;;;;;18.00;57.80;;;;;;5045400;28;1586;-72
2024/03/13 04:07:45;;;;;;;;;;;18.00;57.80;;;;;;5045530;28;1418;-72
2024/03/13 04:10:11;;;;;;;;;;;18.00;57.80;;;;;;5039794;28;1890;-72
2024/03/13 04:12:36;;;;;;;;;;;18.00;57.90;;;;;;5042343;28;1451;-73
2024/03/13 04:15:04;;;;;;;;;;;18.00;57.90;;;;;;5043210;28;1358;-73
2024/03/13 04:17:30;;;;;;;;;;;18.00;57.90;;;;;;5040804;28;1202;-71
2024/03/13 04:19:55;;;;;;;;;;;18.00;57.90;;;;;;5041612;28;1363;-71
2024/03/13 04:22:21;;;;;;;;;;;18.00;57.90;;;;;;5043568;28;1910;-71
2024/03/13 04:24:46;;;;;;;;;;;18.00;58.00;;;;;;5042580;28;1533;-71
2024/03/13 04:27:11;;;;;;;;;;;18.00;58.00;;;;;;5041707;28;1367;-71
2024/03/13 04:29:37;;;;;;;;;;;18.00;58.00;;;;;;5041556;28;1472;-71
2024/03/13 04:32:04;;;;;;;;;;;18.00;58.00;;;;;;5041582;28;1476;-71
2024/03/13 04:34:29;;;;;;;;;;;18.00;58.00;;;;;;5040615;28;1406;-71
2024/03/13 04:36:55;;;;;;;;;;;18.00;58.10;;;;;;5044020;28;1368;-71
2024/03/13 04:39:21;;;;;;;;;;;18.00;58.10;;;;;;5041182;28;1277;-73
2024/03/13 04:41:49;;;;;;;;;;;18.00;58.10;;;;;;5041990;28;1961;-74
2024/03/13 04:44:18;;;;;;;;;;;18.00;58.10;;;;;;5040663;28;1277;-72
2024/03/13 04:46:43;;;;;;;;;;;18.00;58.10;;;;;;5041610;28;1574;-71
2024/03/13 04:49:10;;;;;;;;;;;18.00;58.10;;;;;;5042342;28;1824;-70
2024/03/13 04:51:37;;;;;;;;;;;18.00;58.10;;;;;;5041384;28;1303;-72
2024/03/13 04:54:03;;;;;;;;;;;18.00;58.10;;;;;;5039510;28;1395;-71
2024/03/13 04:56:29;;;;;;;;;;;18.00;58.20;;;;;;5040523;28;1253;-71
2024/03/13 04:58:54;;;;;;;;;;;18.00;58.20;;;;;;5041098;28;1415;-70
2024/03/13 05:01:19;;;;;;;;;;;18.00;58.20;;;;;;5041664;28;1265;-70
2024/03/13 05:03:45;;;;;;;;;;;18.00;58.20;;;;;;5040069;28;1906;-70
2024/03/13 05:06:10;;;;;;;;;;;18.00;58.20;;;;;;5037903;28;1366;-70
2024/03/13 05:08:36;;;;;;;;;;;18.00;58.20;;;;;;5040038;28;1660;-70
2024/03/13 05:11:01;;;;;;;;;;;18.00;58.20;;;;;;5040428;28;1500;-70
2024/03/13 05:13:27;;;;;;;;;;;18.00;58.20;;;;;;5041247;28;1526;-70
2024/03/13 05:15:53;;;;;;;;;;;18.00;58.20;;;;;;5041548;28;1511;-70
2024/03/13 05:18:21;;;;;;;;;;;18.10;58.20;;;;;;5038865;28;1436;-70
2024/03/13 05:20:47;;;;;;;;;;;18.10;58.10;;;;;;5048459;28;1771;-71
2024/03/13 05:23:12;;;;;;;;;;;18.10;58.10;;;;;;5039234;28;1906;-75
2024/03/13 05:25:38;;;;;;;;;;;18.10;58.00;;;;;;5044321;28;1593;-74
2024/03/13 05:28:03;;;;;;;;;;;18.20;58.00;;;;;;5047621;28;1284;-75
2024/03/13 05:30:29;;;;;;;;;;;18.20;57.90;;;;;;5044483;28;947;-72
2024/03/13 05:32:54;;;;;;;;;;;18.20;57.80;;;;;;5040473;28;1347;-76
2024/03/13 05:35:20;;;;;;;;;;;18.30;57.80;;;;;;5043921;28;883;-76
2024/03/13 05:37:46;;;;;;;;;;;18.30;57.70;;;;;;5041539;28;1003;-71
2024/03/13 05:40:17;;;;;;;;;;;18.30;57.70;;;;;;5044434;28;1066;-70
2024/03/13 05:42:43;;;;;;;;;;;18.30;57.60;;;;;;5037758;28;1967;-70
2024/03/13 05:45:09;;;;;;;;;;;18.30;57.60;;;;;;5040421;28;1334;-70
2024/03/13 05:47:34;;;;;;;;;;;18.30;57.50;;;;;;5040992;28;1352;-69
2024/03/13 05:50:00;;;;;;;;;;;18.30;57.50;;;;;;5040727;28;1350;-71
2024/03/13 05:52:26;;;;;;;;;;;18.40;57.50;;;;;;5039813;28;1515;-70
2024/03/13 05:54:51;;;;;;;;;;;18.40;57.40;;;;;;5040172;28;1326;-70
2024/03/13 05:57:17;;;;;;;;;;;18.40;57.40;;;;;;5043350;28;1343;-70
2024/03/13 05:59:43;;;;;;;;;;;18.40;57.40;;;;;;5041624;28;1211;-72
2024/03/13 06:02:08;;;;;;;;;;;18.40;57.40;;;;;;5040027;28;1959;-71
2024/03/13 06:04:36;;;;;;;;;;;18.40;57.40;;;;;;5039556;28;1488;-70
2024/03/13 06:07:01;;;;;;;;;;;18.40;57.30;;;;;;5037679;28;1417;-70
2024/03/13 06:09:28;;;;;;;;;;;18.40;57.30;;;;;;5040853;28;1066;-70
2024/03/13 06:11:53;;;;;;;;;;;18.40;57.30;;;;;;5041145;28;1382;-70
2024/03/13 06:14:19;;;;;;;;;;;18.40;57.30;;;;;;5040071;28;1387;-71
2024/03/13 06:16:44;;;;;;;;;;;18.50;57.30;;;;;;5041232;28;1367;-70
2024/03/13 06:19:11;;;;;;;;;;;18.50;57.30;;;;;;5040950;28;1185;-70
2024/03/13 06:21:36;;;;;;;;;;;18.50;57.30;;;;;;5040323;28;1898;-70
2024/03/13 06:24:05;;;;;;;;;;;18.50;57.30;;;;;;5038244;28;1216;-69
2024/03/13 06:26:30;;;;;;;;;;;18.50;57.30;;;;;;5039356;28;1628;-69
2024/03/13 06:31:40;;;;;;;;;;;18.50;57.30;;;;;;5041027;28;1682;-72
2024/03/13 06:34:08;;;;;;;;;;;18.50;57.30;;;;;;5040414;28;1668;-70
2024/03/13 06:36:37;;;;;;;;;;;18.50;57.30;;;;;;5039602;28;1225;-75
2024/03/13 06:39:03;;;;;;;;;;;18.50;57.30;;;;;;5030892;28;4309;-71
2024/03/13 06:41:29;;;;;;;;;;;18.50;57.30;;;;;;5039297;28;3349;-72
2024/03/13 06:43:54;;;;;;;;;;;18.50;57.30;;;;;;5038923;28;1902;-71
2024/03/13 06:46:20;;;;;;;;;;;18.50;57.30;;;;;;5037020;28;1355;-71
2024/03/13 06:48:45;;;;;;;;;;;18.50;57.30;;;;;;5042262;28;1601;-71
2024/03/13 06:51:14;;;;;;;;;;;18.50;57.30;;;;;;5038778;28;1488;-72
2024/03/13 06:53:40;;;;;;;;;;;18.50;57.30;;;;;;5047635;28;1654;-71
2024/03/13 06:56:05;;;;;;;;;;;18.50;57.30;;;;;;5035443;28;1405;-71
2024/03/13 06:58:31;;;;;;;;;;;18.50;57.30;;;;;;5039182;28;1361;-73
2024/03/13 07:00:57;;;;;;;;;;;18.50;57.30;;;;;;5040215;28;1456;-72
2024/03/13 07:03:23;;;;;;;;;;;18.50;57.30;;;;;;5037981;28;1996;-71
2024/03/13 07:05:51;;;;;;;;;;;18.50;57.30;;;;;;5037682;28;1337;-70
2024/03/13 07:08:17;;;;;;;;;;;18.50;57.30;;;;;;5043218;28;1541;-71
2024/03/13 07:10:43;;;;;;;;;;;18.50;57.40;;;;;;5066982;28;1444;-71
2024/03/13 07:13:08;;;;;;;;;;;18.50;57.40;;;;;;5037635;28;1616;-70
2024/03/13 07:15:34;;;;;;;;;;;18.50;57.40;;;;;;5035400;28;1469;-71
2024/03/13 07:18:00;;;;;;;;;;;18.50;57.40;;;;;;5037022;28;1457;-71
2024/03/13 07:20:25;;;;;;;;;;;18.50;57.40;;;;;;5053821;28;1313;-70
2024/03/13 07:22:51;;;;;;;;;;;18.50;57.40;;;;;;5034907;28;1969;-70
2024/03/13 07:25:17;;;;;;;;;;;18.50;57.50;;;;;;5039013;28;2223;-70
2024/03/13 07:27:43;;;;;;;;;;;18.50;57.40;;;;;;5038375;28;1222;-70
2024/03/13 07:30:08;;;;;;;;;;;18.50;57.50;;;;;;5039528;28;1575;-70
2024/03/13 07:32:34;;;;;;;;;;;18.50;57.50;;;;;;5041342;28;1356;-71
2024/03/13 07:35:00;;;;;;;;;;;18.50;57.50;;;;;;5040184;28;1620;-69
2024/03/13 07:37:25;;;;;;;;;;;18.50;57.50;;;;;;5040439;28;1411;-71
2024/03/13 07:39:55;;;;;;;;;;;18.50;57.50;;;;;;5039309;28;1449;-72
2024/03/13 07:42:20;;;;;;;;;;;18.50;57.50;;;;;;5045035;28;1910;-73
2024/03/13 07:44:46;;;;;;;;;;;18.50;57.60;;;;;;5038381;28;1508;-72
2024/03/13 07:47:12;;;;;;;;;;;18.50;57.60;;;;;;5039884;28;1581;-72
2024/03/13 07:49:37;;;;;;;;;;;18.50;57.60;;;;;;5030560;28;4355;-74
2024/03/13 07:52:03;;;;;;;;;;;18.50;57.60;;;;;;5039189;28;1261;-74
2024/03/13 07:54:29;;;;;;;;;;;18.50;57.60;;;;;;5039250;28;1277;-74
2024/03/13 07:56:54;;;;;;;;;;;18.50;57.70;;;;;;5041995;28;1356;-72
2024/03/13 07:59:25;;;;;;;;;;;18.50;57.70;;;;;;5039114;28;1450;-72
2024/03/13 08:01:50;;;;;;;;;;;18.50;57.70;;;;;;5044109;28;1906;-72
2024/03/13 08:04:16;;;;;;;;;;;18.50;57.70;;;;;;5038825;28;1759;-72
2024/03/13 08:06:41;;;;;;;;;;;18.50;57.70;;;;;;5035901;28;1459;-72
2024/03/13 08:09:07;;;;;;;;;;;18.40;57.60;;;;;;5036636;28;1283;-72
2024/03/13 08:11:32;;;;;;;;;;;18.50;57.70;;;;;;5036958;28;1244;-72
2024/03/13 08:14:01;;;;;;;;;;;18.40;57.70;;;;;;5022877;28;1682;-72
2024/03/13 08:16:27;;;;;;;;;;;18.50;57.80;;;;;;5023369;28;1776;-73
2024/03/13 08:18:52;;;;;;;;;;;18.40;57.70;;;;;;5038057;28;1613;-72
2024/03/13 08:21:18;;;;;;;;;;;18.40;57.70;;;;;;5037266;28;971;-72
2024/03/13 08:23:44;;;;;;;;;;;18.40;57.70;;;;;;5045840;28;1918;-73
2024/03/13 08:26:10;;;;;;;;;;;18.50;57.80;;;;;;5046513;28;1319;-73
2024/03/13 08:28:37;;;;;;;;;;;18.50;57.80;;;;;;5070873;28;1225;-72
2024/03/13 08:31:05;;;;;;;;;;;18.50;57.80;;;;;;5038446;28;1614;-73
2024/03/13 08:33:33;;;;;;;;;;;18.40;57.80;;;;;;5041693;28;1379;-73
2024/03/13 08:36:01;;;;;;;;;;;18.40;57.80;;;;;;5040085;28;947;-73
2024/03/13 08:38:27;;;;;;;;;;;18.50;57.80;;;;;;5039115;28;1188;-72
2024/03/13 08:40:54;;;;;;;;;;;18.50;57.80;;;;;;5039785;28;1280;-72
2024/03/13 08:43:20;;;;;;;;;;;18.50;57.80;;;;;;5040991;28;1983;-72
2024/03/13 08:45:46;;;;;;;;;;;18.40;57.80;;;;;;5041085;28;929;-73
2024/03/13 08:48:11;;;;;;;;;;;18.50;57.80;;;;;;5042456;28;1225;-72
2024/03/13 08:50:37;;;;;;;;;;;18.50;57.80;;;;;;5026105;28;1522;-72
2024/03/13 08:53:03;;;;;;;;;;;18.50;57.80;;;;;;5041549;28;1374;-72
2024/03/13 08:55:32;;;;;;;;;;;18.50;57.80;;;;;;5072694;28;1010;-73
2024/03/13 08:57:58;;;;;;;;;;;18.50;57.80;;;;;;5042665;28;1507;-72
2024/03/13 09:00:24;;;;;;;;;;;18.50;57.80;;;;;;5040397;28;1125;-73
2024/03/13 09:02:55;;;;;;;;;;;18.50;57.80;;;;;;5043540;28;1914;-72
2024/03/13 09:05:21;;;;;;;;;;;18.50;57.70;;;;;;5042365;28;1448;-72
2024/03/13 09:07:46;;;;;;;;;;;18.50;57.80;;;;;;5042444;28;1260;-72
2024/03/13 09:10:12;;;;;;;;;;;18.50;57.80;;;;;;5040339;28;1388;-72
2024/03/13 09:12:38;;;;;;;;;;;18.50;57.70;;;;;;5041297;28;1300;-72
2024/03/13 09:15:05;;;;;;;;;;;18.50;57.70;;;;;;5043423;28;1246;-72
2024/03/13 09:17:31;;;;;;;;;;;18.50;57.70;;;;;;5040728;28;993;-72
2024/03/13 09:19:56;;;;;;;;;;;18.50;57.70;;;;;;5039476;28;1444;-72
2024/03/13 09:22:22;;;;;;;;;;;18.50;57.70;;;;;;5039030;28;1909;-72
2024/03/13 09:24:48;;;;;;;;;;;18.50;57.70;;;;;;5037740;28;1973;-72
2024/03/13 09:27:13;;;;;;;;;;;18.50;57.60;;;;;;5040202;28;1312;-72
2024/03/13 09:29:39;;;;;;;;;;;18.50;57.60;;;;;;5041066;28;1344;-72
2024/03/13 09:32:05;;;;;;;;;;;18.50;57.60;;;;;;5042385;28;1526;-72
2024/03/13 09:34:31;;;;;;;;;;;18.50;57.60;;;;;;5039773;28;1387;-72
2024/03/13 09:37:00;;;;;;;;;;;18.50;57.70;;;;;;5039308;28;1571;-72
2024/03/13 09:39:26;;;;;;;;;;;18.50;57.60;;;;;;5040574;28;1561;-72
2024/03/13 09:41:53;;;;;;;;;;;18.50;57.60;;;;;;5042156;28;1886;-72
2024/03/13 09:44:19;;;;;;;;;;;18.50;57.70;;;;;;5040081;28;1359;-73
2024/03/13 09:46:44;;;;;;;;;;;18.60;57.70;;;;;;5039081;28;1358;-72
2024/03/13 09:49:10;;;;;;;;;;;18.50;57.70;;;;;;5041037;28;1605;-72
2024/03/13 09:51:36;;;;;;;;;;;18.50;57.70;;;;;;5039924;28;938;-72
2024/03/13 09:54:02;;;;;;;;;;;18.50;57.70;;;;;;5040999;28;1408;-72
2024/03/13 09:56:27;;;;;;;;;;;18.50;57.70;;;;;;5043180;28;1269;-72
2024/03/13 09:58:54;;;;;;;;;;;18.50;57.70;;;;;;5047264;28;1472;-72
2024/03/13 10:01:20;;;;;;;;;;;18.50;57.70;;;;;;5048058;28;1422;-71
2024/03/13 10:03:50;;;;;;;;;;;18.60;57.80;;;;;;5037496;28;1969;-71
2024/03/13 10:06:16;;;;;;;;;;;18.50;57.70;;;;;;5037658;28;1289;-71
2024/03/13 10:08:42;;;;;;;;;;;18.50;57.90;;;;;;5038758;28;1270;-71
2024/03/13 10:11:08;;;;;;;;;;;18.60;58.30;;;;;;5040066;28;1496;-71
2024/03/13 10:13:34;;;;;;;;;;;18.60;58.20;;;;;;5038036;28;1554;-71
2024/03/13 10:16:00;;;;;;;;;;;18.60;58.60;;;;;;5039225;28;1482;-71
2024/03/13 10:18:25;;;;;;;;;;;18.60;57.60;;;;;;5037658;28;1513;-71
2024/03/13 10:21:02;;;;;;;;;;;18.60;56.40;;;;;;5047095;28;1457;-71
2024/03/13 10:23:31;;;;;;;;;;;18.60;57.00;;;;;;5038483;28;1981;-71
2024/03/13 10:25:56;;;;;;;;;;;18.60;57.00;;;;;;5036850;28;1549;-71
2024/03/13 10:28:23;;;;;;;;;;;18.60;56.30;;;;;;5041135;28;1404;-71
2024/03/13 10:30:53;;;;;;;;;;;18.60;55.30;;;;;;5037936;28;1321;-71
2024/03/13 10:33:19;;;;;;;;;;;18.60;55.60;;;;;;5041147;28;1981;-71
2024/03/13 10:35:45;;;;;;;;;;;18.60;55.40;;;;;;5041121;28;1530;-71
2024/03/13 10:38:14;;;;;;;;;;;18.60;55.20;;;;;;5040306;28;1527;-71
2024/03/13 10:40:42;;;;;;;;;;;18.60;56.50;;;;;;5072638;28;1495;-71
2024/03/13 10:43:11;;;;;;;;;;;18.60;58.00;;;;;;5046818;28;1975;-71
2024/03/13 10:45:37;;;;;;;;;;;18.60;56.90;;;;;;5039455;28;1465;-71
2024/03/13 10:48:03;;;;;;;;;;;18.60;56.00;;;;;;5037725;28;1496;-71
2024/03/13 10:50:28;;;;;;;;;;;18.60;56.10;;;;;;5037398;28;1371;-71
2024/03/13 10:52:54;;;;;;;;;;;18.60;56.00;;;;;;5041556;28;1783;-71
2024/03/13 10:55:19;;;;;;;;;;;18.60;55.80;;;;;;5039096;28;1350;-71
2024/03/13 10:57:49;;;;;;;;;;;18.50;56.10;;;;;;5039243;28;1204;-71
2024/03/13 11:00:21;;;;;;;;;;;18.60;56.30;;;;;;5049134;28;1565;-71
2024/03/13 11:02:49;;;;;;;;;;;18.50;54.70;;;;;;5036005;28;1973;-71
2024/03/13 11:05:15;;;;;;;;;;;18.50;55.90;;;;;;5036783;28;1399;-71
2024/03/13 11:07:40;;;;;;;;;;;18.50;55.00;;;;;;5037690;28;1103;-71
2024/03/13 11:10:10;;;;;;;;;;;18.50;52.30;;;;;;5036234;28;1085;-71
2024/03/13 11:12:36;;;;;;;;;;;18.40;51.70;;;;;;5038155;28;1443;-71
2024/03/13 11:15:01;;;;;;;;;;;18.40;54.30;;;;;;5068034;28;1472;-71
2024/03/13 11:17:26;;;;;;;;;;;18.40;48.90;;;;;;5036289;28;1348;-71
2024/03/13 11:19:58;;;;;;;;;;;18.30;48.40;;;;;;5038678;28;1404;-71
2024/03/13 11:22:24;;;;;;;;;;;18.30;53.00;;;;;;5039542;28;1914;-71
2024/03/13 11:24:49;;;;;;;;;;;18.30;54.90;;;;;;5075124;28;1363;-71
2024/03/13 11:27:15;;;;;;;;;;;18.30;54.60;;;;;;5040514;28;1418;-71
2024/03/13 11:29:43;;;;;;;;;;;18.20;53.40;;;;;;5039288;28;1134;-71
2024/03/13 11:32:12;;;;;;;;;;;18.20;53.90;;;;;;5047313;28;1245;-71
2024/03/13 11:34:38;;;;;;;;;;;18.30;53.50;;;;;;5038110;28;1674;-71
2024/03/13 11:37:04;;;;;;;;;;;18.30;53.70;;;;;;5038093;28;1602;-72
2024/03/13 11:39:30;;;;;;;;;;;18.30;54.10;;;;;;5040033;28;1443;-71
2024/03/13 11:42:05;;;;;;;;;;;18.30;55.50;;;;;;5023254;28;1906;-71
2024/03/13 11:44:32;;;;;;;;;;;18.30;55.50;;;;;;5057046;28;1272;-72
2024/03/13 11:46:58;;;;;;;;;;;18.30;55.90;;;;;;5038886;28;1457;-72
2024/03/13 11:49:23;;;;;;;;;;;18.30;55.80;;;;;;5039196;28;1455;-72
2024/03/13 11:52:09;;;;;;;;;;;18.30;55.30;;;;;;5036350;28;1396;-72
2024/03/13 11:54:39;;;;;;;;;;;18.30;55.70;;;;;;5037822;28;1288;-72
2024/03/13 11:57:12;;;;;;;;;;;18.20;54.90;;;;;;5036738;28;1389;-72
2024/03/13 11:59:38;;;;;;;;;;;18.30;54.80;;;;;;5044957;28;1440;-72
2024/03/13 12:02:05;;;;;;;;;;;18.30;55.70;;;;;;5037574;28;1953;-72
2024/03/13 12:04:36;;;;;;;;;;;18.20;55.60;;;;;;5037948;28;1325;-72
2024/03/13 12:07:03;;;;;;;;;;;18.30;54.90;;;;;;5043902;28;1260;-72
2024/03/13 12:09:29;;;;;;;;;;;18.30;55.20;;;;;;5039475;28;1326;-72
2024/03/13 12:11:54;;;;;;;;;;;18.30;55.50;;;;;;5043552;28;1260;-72
2024/03/13 12:14:21;;;;;;;;;;;18.20;55.60;;;;;;5041676;28;1733;-72
2024/03/13 12:16:47;;;;;;;;;;;18.30;55.70;;;;;;5075849;28;1390;-72
2024/03/13 12:19:12;;;;;;;;;;;18.30;56.50;;;;;;5041983;28;1570;-72
2024/03/13 12:21:39;;;;;;;;;;;18.20;54.60;;;;;;5039406;28;1330;-72
2024/03/13 12:24:07;;;;;;;;;;;18.20;54.00;;;;;;5044835;28;1894;-72
2024/03/13 12:26:32;;;;;;;;;;;18.20;54.80;;;;;;5042388;28;1146;-72
2024/03/13 12:28:58;;;;;;;;;;;18.20;54.00;;;;;;5049697;28;1472;-72
2024/03/13 12:31:24;;;;;;;;;;;18.20;52.70;;;;;;5041249;28;1384;-72
2024/03/13 12:33:53;;;;;;;;;;;18.20;51.60;;;;;;5042152;28;1278;-72
2024/03/13 12:36:19;;;;;;;;;;;18.10;48.80;;;;;;5042304;28;1613;-73
2024/03/13 12:38:44;;;;;;;;;;;18.10;49.20;;;;;;5040322;28;1138;-72
2024/03/13 12:41:11;;;;;;;;;;;18.10;49.50;;;;;;5042749;28;1279;-72
2024/03/13 12:43:37;;;;;;;;;;;18.10;50.30;;;;;;5042664;28;1953;-73
2024/03/13 12:46:03;;;;;;;;;;;18.10;51.40;;;;;;5042947;28;1557;-73
2024/03/13 12:48:31;;;;;;;;;;;18.10;51.60;;;;;;5040313;28;1471;-73
2024/03/13 12:50:58;;;;;;;;;;;18.10;51.70;;;;;;5041532;28;1320;-73
2024/03/13 12:53:29;;;;;;;;;;;18.10;52.00;;;;;;5042827;28;1626;-73
2024/03/13 12:55:54;;;;;;;;;;;18.10;52.20;;;;;;5040475;28;1190;-73
2024/03/13 12:58:21;;;;;;;;;;;18.10;52.50;;;;;;5025175;28;1662;-73
2024/03/13 13:00:46;;;;;;;;;;;18.10;52.70;;;;;;5040098;28;1546;-73
2024/03/13 13:03:12;;;;;;;;;;;18.10;52.90;;;;;;5072004;28;1977;-73
2024/03/13 13:05:38;;;;;;;;;;;18.10;53.20;;;;;;5041189;28;1484;-73
2024/03/13 13:08:06;;;;;;;;;;;18.10;53.30;;;;;;5042632;28;1360;-73
2024/03/13 13:10:32;;;;;;;;;;;18.10;53.50;;;;;;5025706;28;1707;-73
2024/03/13 13:12:59;;;;;;;;;;;18.10;53.70;;;;;;5042001;28;1638;-73
2024/03/13 13:15:24;;;;;;;;;;;18.00;53.90;;;;;;5042004;28;1334;-73
2024/03/13 13:17:50;;;;;;;;;;;18.00;54.00;;;;;;5041441;28;1562;-73
2024/03/13 13:20:16;;;;;;;;;;;18.10;54.20;;;;;;5040410;28;1808;-73
2024/03/13 13:22:41;;;;;;;;;;;18.10;54.30;;;;;;5039434;28;1973;-73
2024/03/13 13:25:16;;;;;;;;;;;18.00;54.40;;;;;;5039338;28;1616;-72
2024/03/13 13:27:42;;;;;;;;;;;18.00;54.50;;;;;;5039409;28;1246;-72
2024/03/13 13:30:12;;;;;;;;;;;18.00;54.60;;;;;;5041435;28;1358;-72
2024/03/13 13:32:38;;;;;;;;;;;18.00;54.70;;;;;;5040461;28;1296;-72
2024/03/13 13:35:06;;;;;;;;;;;18.00;54.90;;;;;;5041172;28;1239;-72
2024/03/13 13:37:32;;;;;;;;;;;18.00;54.90;;;;;;5042681;28;895;-72
2024/03/13 13:39:58;;;;;;;;;;;18.00;55.00;;;;;;5042344;28;1254;-72
2024/03/13 13:42:24;;;;;;;;;;;18.00;55.10;;;;;;5041749;28;1894;-72
2024/03/13 13:44:54;;;;;;;;;;;18.00;55.20;;;;;;5039925;28;1279;-72
2024/03/13 13:47:20;;;;;;;;;;;18.00;55.30;;;;;;5039248;28;1082;-72
2024/03/13 13:49:46;;;;;;;;;;;18.00;55.30;;;;;;5039711;28;1322;-72
2024/03/13 13:52:13;;;;;;;;;;;18.00;55.40;;;;;;5039812;28;1703;-71
2024/03/13 13:54:38;;;;;;;;;;;18.00;55.50;;;;;;5039252;28;1644;-72
2024/03/13 13:57:04;;;;;;;;;;;18.00;55.50;;;;;;5039329;28;1461;-72
2024/03/13 13:59:29;;;;;;;;;;;18.00;55.60;;;;;;5037563;28;1288;-73
2024/03/13 14:01:55;;;;;;;;;;;18.00;55.70;;;;;;5041158;28;1966;-72
2024/03/13 14:04:21;;;;;;;;;;;18.00;55.70;;;;;;5039645;28;1435;-73
2024/03/13 14:06:49;;;;;;;;;;;18.00;55.80;;;;;;5039134;28;1513;-73
2024/03/13 14:09:16;;;;;;;;;;;18.00;55.80;;;;;;5041039;28;1456;-73
2024/03/13 14:11:42;;;;;;;;;;;18.00;55.90;;;;;;5040225;28;1337;-73
2024/03/13 14:14:08;;;;;;;;;;;18.00;55.90;;;;;;5039377;28;1639;-72
2024/03/13 14:16:34;;;;;;;;;;;18.00;56.00;;;;;;5040479;28;1231;-72
2024/03/13 14:19:00;;;;;;;;;;;18.00;56.10;;;;;;5039415;28;1114;-72
2024/03/13 14:21:26;;;;;;;;;;;18.00;56.10;;;;;;5042419;28;1637;-72
2024/03/13 14:23:51;;;;;;;;;;;18.00;56.10;;;;;;5042292;28;1942;-72
2024/03/13 14:26:17;;;;;;;;;;;18.00;56.20;;;;;;5044043;28;1774;-72
2024/03/13 14:28:47;;;;;;;;;;;18.00;56.20;;;;;;5049634;28;1215;-72
2024/03/13 14:31:13;;;;;;;;;;;18.00;56.30;;;;;;5040129;28;1243;-73
2024/03/13 14:33:39;;;;;;;;;;;18.00;56.30;;;;;;5027956;28;1304;-73
2024/03/13 14:36:07;;;;;;;;;;;18.00;56.40;;;;;;5038290;28;1408;-72
2024/03/13 14:38:32;;;;;;;;;;;18.00;56.40;;;;;;5038997;28;1657;-73
2024/03/13 14:40:58;;;;;;;;;;;18.00;56.40;;;;;;5040127;28;1477;-73
2024/03/13 14:43:24;;;;;;;;;;;18.00;56.40;;;;;;5038689;28;1898;-74
2024/03/13 14:45:49;;;;;;;;;;;18.00;56.50;;;;;;5042040;28;1370;-74
2024/03/13 14:48:15;;;;;;;;;;;18.00;56.50;;;;;;5043595;28;1248;-75
2024/03/13 14:50:40;;;;;;;;;;;18.00;56.60;;;;;;5043872;28;1034;-74